Davis, Illinois
Current Conditions -  °F | °C
As of 6:15 AM on Tuesday 27 Jan 2015 (Local Time) from KFEP Reporting Station
Haze Haze  
Wind Chill: 17°   Ceiling: 800
Heat Index: 26°   Visibility: 5mi
Dew Point: 24°   Wind: 8mph
Humidity: 93%   Direction: 360°N
Pressure: 30.08"   Gusts: NA
Location:  42.42°N, 89.41°W
Report Text: KFEP 271215Z AUTO 36007KT 5SM BR OVC008 M04/M05 A3008 RMK AO2 T10361046
Loading
Personal Weather Stations






























Interactive Weather Map New forecast layout! Learn more

10-Day Weather Forecast

Advertisements
Track Severe Weather on mobile